SimForums.com Homepage
Forum Home Forum Home > Flight One Partner Forums > Opus Software
  New Posts New Posts RSS Feed - P3D V5.1 error
  FAQ FAQ  Forum Search   Register Register  Login Login

P3D V5.1 error

 Post Reply Post Reply Page  12>
Author
Message
yvesamuel View Drop Down
Intermediate Group
Intermediate Group


Joined: September-05-2009
Location: France
Points: 71
Post Options Post Options   Thanks (0) Thanks(0)   Quote yvesamuel Quote  Post ReplyReply Direct Link To This Post Topic: P3D V5.1 error
    Posted: November-07-2020 at 3:44pm
Hi,
Since the last versions, I have often an error, just after landing
P3DSERVER.EXE



6.1.2.8



5fa2ec24



KERNELBASE.dll



10.0.19041.572



1183946c



e0434352



0000000000023e49



29fc



01d6b514977b3867



D:\OpusFSI_v6\P3DSERVER.EXE



C:\Windows\System32\KERNELBASE.dll



9836c541-8815-41b3-822d-f9504c1cd502

Any idea?
Today I made 2 flights :LFPG-CYVR with no error, and then CYVR-RJAA with the error. I did not rebbot between the 2 flights.

Good evening from ELLX
Yves








Back to Top
Opus Software View Drop Down
Senior Member
Senior Member


Joined: April-12-2012
Location: Grantham, UK
Points: 14895
Post Options Post Options   Thanks (0) Thanks(0)   Quote Opus Software Quote  Post ReplyReply Direct Link To This Post Posted: November-07-2020 at 5:32pm
After landing the server will most likely be trying to display the pop up window showing the analysis then trying to restore focus back to the sim. I will take a look at that process to see if there are any exceptions I can detect and account for, stopping any possible error.

Did you get the landing analysis pop up window on the screen ?

Have you run a Windows Update recently ?

Stephen
Back to Top
Opus Software View Drop Down
Senior Member
Senior Member


Joined: April-12-2012
Location: Grantham, UK
Points: 14895
Post Options Post Options   Thanks (0) Thanks(0)   Quote Opus Software Quote  Post ReplyReply Direct Link To This Post Posted: November-08-2020 at 2:46am
I have posted a new OpusFSI v6 Release (6.12.9).
 
I believe I found the cause of the problem relating to the display and removal of the Landing Analysis Popup window. This has been changed and all remaining possible exceptions should now be trapped and handled.
 
Stephen Smile
Back to Top
yvesamuel View Drop Down
Intermediate Group
Intermediate Group


Joined: September-05-2009
Location: France
Points: 71
Post Options Post Options   Thanks (0) Thanks(0)   Quote yvesamuel Quote  Post ReplyReply Direct Link To This Post Posted: November-08-2020 at 2:39pm
Hi,

I Did 2 flights today and rebooted between them.
Just before or after landing at EGLL (I was trying to land correctly so did not control OPUS), 2 errors
Application : P3DSERVER.EXE Version du Framework : v4.0.30319 Description : le processus a été arrêté en raison d'une exception non gérée. Informations sur l'exception : System.OverflowException à System.Math.AbsHelper(Int32) à e.g() à System.Threading.ExecutionContext.RunInternal(System.Threading.ExecutionContext, System.Threading.ContextCallback, System.Object, Boolean) à System.Threading.ExecutionContext.Run(System.Threading.ExecutionContext, System.Threading.ContextCallback, System.Object, Boolean) à System.Threading.ExecutionContext.Run(System.Threading.ExecutionContext, System.Threading.ContextCallback, System.Object) à System.Threading.ThreadHelper.ThreadStart()

then

P3DSERVER.EXE



6.1.2.9



5fa79fc3



KERNELBASE.dll



10.0.19041.572



1183946c



e0434352



0000000000023e49



2c54



01d6b5dac0f16b66



D:\OpusFSI_v6\P3DSERVER.EXE



C:\Windows\System32\KERNELBASE.dll



e3607887-bb91-4ad7-8dfe-7a305b9760f1








Not the same error.
Can you have a look please...

Thank's
Yves
Back to Top
Opus Software View Drop Down
Senior Member
Senior Member


Joined: April-12-2012
Location: Grantham, UK
Points: 14895
Post Options Post Options   Thanks (0) Thanks(0)   Quote Opus Software Quote  Post ReplyReply Direct Link To This Post Posted: November-08-2020 at 2:55pm
Yes, thanks for the report. I will take a look tomorrow I’ve got a few ideas what might be wrong.

Regards
Stephen 
Back to Top
Opus Software View Drop Down
Senior Member
Senior Member


Joined: April-12-2012
Location: Grantham, UK
Points: 14895
Post Options Post Options   Thanks (0) Thanks(0)   Quote Opus Software Quote  Post ReplyReply Direct Link To This Post Posted: November-08-2020 at 3:26pm
They are most likely the same error or cause, an unhandled overflow error. The KERNELBASE.dll error is quite generic and happens any time there’s an unhandled exception. So the one causes the other. I thought your original report related to the Popup, it’s display or removal.

But your error report shows the origin is in the calculations being performed for the landing analysis data.

I will work on the fix tomorrow morning and post an update.

Sorry for any inconvenience.

Regards
Stephen
Back to Top
yvesamuel View Drop Down
Intermediate Group
Intermediate Group


Joined: September-05-2009
Location: France
Points: 71
Post Options Post Options   Thanks (0) Thanks(0)   Quote yvesamuel Quote  Post ReplyReply Direct Link To This Post Posted: November-09-2020 at 2:01am
Don't worry, I hava time...

Thank's
Yves
Back to Top
Opus Software View Drop Down
Senior Member
Senior Member


Joined: April-12-2012
Location: Grantham, UK
Points: 14895
Post Options Post Options   Thanks (0) Thanks(0)   Quote Opus Software Quote  Post ReplyReply Direct Link To This Post Posted: November-09-2020 at 2:05am
I will post 6.12.10 update soon. I have trapped all math and other data handling exceptions in handling the sim object data, ignoring all erroneous aircraft and flight data received from the P3D sim. Any trapped exceptions should be reported in the Spy window which you could display during your approach (can make it semi transparent).
 
I'm giving the new release a quick test now.
 
Stephen
Back to Top
Opus Software View Drop Down
Senior Member
Senior Member


Joined: April-12-2012
Location: Grantham, UK
Points: 14895
Post Options Post Options   Thanks (0) Thanks(0)   Quote Opus Software Quote  Post ReplyReply Direct Link To This Post Posted: November-09-2020 at 2:13am
Its available for you to try now. I get no errors during my approaches but it may be aircraft or flight duration specific.
 
Stephen
Back to Top
Opus Software View Drop Down
Senior Member
Senior Member


Joined: April-12-2012
Location: Grantham, UK
Points: 14895
Post Options Post Options   Thanks (0) Thanks(0)   Quote Opus Software Quote  Post ReplyReply Direct Link To This Post Posted: November-09-2020 at 10:56am
If the error occurs again can you let me know what the first error reports including its stack trace or location report.

Did you have any OpusFSI maps on display during the approach?

Do you have ButtKicker, TrackIR, etc. enabled?

I’ve made changes based on a data overflow exception in the simobject aircraft and sim data.

Stephen
Back to Top
yvesamuel View Drop Down
Intermediate Group
Intermediate Group


Joined: September-05-2009
Location: France
Points: 71
Post Options Post Options   Thanks (0) Thanks(0)   Quote yvesamuel Quote  Post ReplyReply Direct Link To This Post Posted: November-10-2020 at 2:27pm
Hi,

Everything is OK now.

Thank's
Yves
Back to Top
Opus Software View Drop Down
Senior Member
Senior Member


Joined: April-12-2012
Location: Grantham, UK
Points: 14895
Post Options Post Options   Thanks (0) Thanks(0)   Quote Opus Software Quote  Post ReplyReply Direct Link To This Post Posted: November-10-2020 at 2:32pm
Very glad to hear.

Thanks for the report and your patience.

Regards
Stephen
Back to Top
yvesamuel View Drop Down
Intermediate Group
Intermediate Group


Joined: September-05-2009
Location: France
Points: 71
Post Options Post Options   Thanks (0) Thanks(0)   Quote yvesamuel Quote  Post ReplyReply Direct Link To This Post Posted: November-11-2020 at 5:52am
Oups, to quick.
Yesterday and this moroning, I had errors before push back. Yesterday I saught it was because I had a newer version, but not this morning.
Had 2 errors
Application : P3DSERVER.EXE
Version du Framework : v4.0.30319
Description : le processus a été arrêté en raison d'une exception non gérée.
Informations sur l'exception : System.OverflowException
   à System.Math.AbsHelper(Int32)
   à e.g()
   à System.Threading.ExecutionContext.RunInternal(System.Threading.ExecutionContext, System.Threading.ContextCallback, System.Object, Boolean)
   à System.Threading.ExecutionContext.Run(System.Threading.ExecutionContext, System.Threading.ContextCallback, System.Object, Boolean)
   à System.Threading.ExecutionContext.Run(System.Threading.ExecutionContext, System.Threading.ContextCallback, System.Object)
   à System.Threading.ThreadHelper.ThreadStart()

then
Nom de l’application défaillante P3DSERVER.EXE, version : 6.1.2.10, horodatage : 0x5fa8e7e8
Nom du module défaillant : KERNELBASE.dll, version : 10.0.19041.572, horodatage : 0x1183946c
Code d’exception : 0xe0434352
Décalage d’erreur : 0x0000000000023e49
ID du processus défaillant : 0x156c
Heure de début de l’application défaillante : 0x01d6b81497773fe5
Chemin d’accès de l’application défaillante : D:\OpusFSI_v6\P3DSERVER.EXE
Chemin d’accès du module défaillant: C:\Windows\System32\KERNELBASE.dll
ID de rapport : 172f94e6-b5d8-4e73-9dbf-0bce916e6559
Nom complet du package défaillant :
ID de l’application relative au package défaillant :

I reloaded and it's fine. But I have no head movement!
I load Opus immidaitly after a load the P3D flight.
Can you have a look?
Thank's
Yves
Back to Top
Opus Software View Drop Down
Senior Member
Senior Member


Joined: April-12-2012
Location: Grantham, UK
Points: 14895
Post Options Post Options   Thanks (0) Thanks(0)   Quote Opus Software Quote  Post ReplyReply Direct Link To This Post Posted: November-11-2020 at 6:01am
Yes but I’ve been running OpusFSI v6 with P3D v4.5 and v5 all morning since 6am with no problems. I’m concerned when you say you have no head movements, do you mean no cameras?

Have you checked your Configure settings and the Spy window? Does Spy report it’s connected to the correct sim type and PDK connected (I assume you’ve run PDKSETUP).

Try installing all the supplied VC Redist EXE packages to make sure all libraries are ok.

I also have no other reported problems.

What sim version do you have?

Stephen
Back to Top
yvesamuel View Drop Down
Intermediate Group
Intermediate Group


Joined: September-05-2009
Location: France
Points: 71
Post Options Post Options   Thanks (0) Thanks(0)   Quote yvesamuel Quote  Post ReplyReply Direct Link To This Post Posted: November-13-2020 at 3:42pm
Hi,

sorry for late answer.
Everything is fixed.

Thank's and have a good weekend
Yves
Back to Top
yvesamuel View Drop Down
Intermediate Group
Intermediate Group


Joined: September-05-2009
Location: France
Points: 71
Post Options Post Options   Thanks (0) Thanks(0)   Quote yvesamuel Quote  Post ReplyReply Direct Link To This Post Posted: November-17-2020 at 12:10pm
Hi,

A new one, just after landing at VHHH
Application : P3DSERVER.EXE
Version du Framework : v4.0.30319
Description : le processus a été arrêté en raison d'une exception non gérée.
Informations sur l'exception : System.OverflowException
   à System.Math.AbsHelper(Int32)
   à e.g()
   à System.Threading.ExecutionContext.RunInternal(System.Threading.ExecutionContext, System.Threading.ContextCallback, System.Object, Boolean)
   à System.Threading.ExecutionContext.Run(System.Threading.ExecutionContext, System.Threading.ContextCallback, System.Object, Boolean)
   à System.Threading.ExecutionContext.Run(System.Threading.ExecutionContext, System.Threading.ContextCallback, System.Object)
   à System.Threading.ThreadHelper.ThreadStart()

and
Nom de l’application défaillante P3DSERVER.EXE, version : 6.1.2.10, horodatage : 0x5fa8e7e8
Nom du module défaillant : KERNELBASE.dll, version : 10.0.19041.572, horodatage : 0x1183946c
Code d’exception : 0xe0434352
Décalage d’erreur : 0x0000000000023e49
ID du processus défaillant : 0x3420
Heure de début de l’application défaillante : 0x01d6bcb0cf278fa8
Chemin d’accès de l’application défaillante : D:\OpusFSI_v6\P3DSERVER.EXE
Chemin d’accès du module défaillant: C:\Windows\System32\KERNELBASE.dll
ID de rapport : 4450a26b-f502-4d96-b389-855fbeaa17f8
Nom complet du package défaillant :
ID de l’application relative au package défaillant :

Good evening
Yves
Back to Top
Opus Software View Drop Down
Senior Member
Senior Member


Joined: April-12-2012
Location: Grantham, UK
Points: 14895
Post Options Post Options   Thanks (0) Thanks(0)   Quote Opus Software Quote  Post ReplyReply Direct Link To This Post Posted: November-17-2020 at 12:22pm
Have you checked your Configure settings and the Spy window? Does Spy report it’s connected to the correct sim type and PDK connected (I assume you’ve run PDKSETUP).

Did you install all the supplied VC Redist EXE packages to make sure all libraries are ok.

Seems like your original problem was not fixed. I should be trapping all in-program exceptions after your last report. I will see if I can validate all data reported from the sim after or during touchdown. Or it could be happening when the Landing Analysis (LRM) Popup window is displayed.

Are you running the program in Admin Mode.

You could also try disabling the LRM Popup for a while, see if it occurs again.

Stephen
Back to Top
Opus Software View Drop Down
Senior Member
Senior Member


Joined: April-12-2012
Location: Grantham, UK
Points: 14895
Post Options Post Options   Thanks (0) Thanks(0)   Quote Opus Software Quote  Post ReplyReply Direct Link To This Post Posted: November-17-2020 at 12:26pm
Strange, I will take another look tomorrow.

The Math.AbsHelper gives me a few ideas. Just need to identify where although ‘just after landing’ may help.

Stephen
Back to Top
yvesamuel View Drop Down
Intermediate Group
Intermediate Group


Joined: September-05-2009
Location: France
Points: 71
Post Options Post Options   Thanks (0) Thanks(0)   Quote yvesamuel Quote  Post ReplyReply Direct Link To This Post Posted: November-17-2020 at 12:47pm
I have reinstalled all the VC Redist.
I'll try disabling  LRM.
I run as admministrator (checked in the program propriies.

Yves
Back to Top
Opus Software View Drop Down
Senior Member
Senior Member


Joined: April-12-2012
Location: Grantham, UK
Points: 14895
Post Options Post Options   Thanks (0) Thanks(0)   Quote Opus Software Quote  Post ReplyReply Direct Link To This Post Posted: November-17-2020 at 12:49pm
OK thanks. Just try disabling the Popup for now. I will investigate tomorrow.

Stephen
Back to Top
Opus Software View Drop Down
Senior Member
Senior Member


Joined: April-12-2012
Location: Grantham, UK
Points: 14895
Post Options Post Options   Thanks (0) Thanks(0)   Quote Opus Software Quote  Post ReplyReply Direct Link To This Post Posted: November-18-2020 at 3:49am
Using your error report I believe the generic exception may be located within the DHM threading software. I have placed exception handling blocks in each section of this thread, each reporting any abnormalities in the Spy window.
 
I will post a beta with these changes in. The changes should stop the reported exceptions (crashes). Could you please fly with the Spy window open and check to see if you get any reported DHM exceptions. You can use the Spy window's Options to make it topmost and semi transparent.
 
Regards
Stephen Smile
Back to Top
Opus Software View Drop Down
Senior Member
Senior Member


Joined: April-12-2012
Location: Grantham, UK
Points: 14895
Post Options Post Options   Thanks (0) Thanks(0)   Quote Opus Software Quote  Post ReplyReply Direct Link To This Post Posted: November-18-2020 at 5:18am
Success …
 
OpusFSI Beta Version 6.14.0 posted, see Announcements.
 
I believe I have discovered the cause of your exceptions which was due to erroneous z-axis body acceleration data being reported by the sim through its SimConnect. This resulted in exceptions being raised when the software attempted to take the absolute value of an already maxed out negative value.
 
I have now validated and imposed limits on the reported data, in addition to trapping and processing all exceptions in the DHM threads.
 
So no need to disable anything, it hopefully should give you no further problems.
 
Thanks for the detailed reports.
 
Regards
Stephen Thumbs Up
Back to Top
yvesamuel View Drop Down
Intermediate Group
Intermediate Group


Joined: September-05-2009
Location: France
Points: 71
Post Options Post Options   Thanks (0) Thanks(0)   Quote yvesamuel Quote  Post ReplyReply Direct Link To This Post Posted: November-18-2020 at 3:04pm
Thank's Stephen, but I have an error when  want to download...

Good evening
Yves
Back to Top
Opus Software View Drop Down
Senior Member
Senior Member


Joined: April-12-2012
Location: Grantham, UK
Points: 14895
Post Options Post Options   Thanks (0) Thanks(0)   Quote Opus Software Quote  Post ReplyReply Direct Link To This Post Posted: November-18-2020 at 4:09pm
Sorry, it should work now.
 
 
Stephen
Back to Top
yvesamuel View Drop Down
Intermediate Group
Intermediate Group


Joined: September-05-2009
Location: France
Points: 71
Post Options Post Options   Thanks (0) Thanks(0)   Quote yvesamuel Quote  Post ReplyReply Direct Link To This Post Posted: November-21-2020 at 3:55am
Hi Stephen,

Just one more question : if I forget to load OPUS immidiatly after loading P3D, or if I have a crash, I have no DHM.
Is this normal, and could it be possible to arrange this?

Thank's
Yves
Back to Top
Opus Software View Drop Down
Senior Member
Senior Member


Joined: April-12-2012
Location: Grantham, UK
Points: 14895
Post Options Post Options   Thanks (0) Thanks(0)   Quote Opus Software Quote  Post ReplyReply Direct Link To This Post Posted: November-21-2020 at 4:02am
No its not normal, you can run P3DSERVER.EXE at any time, before or after the sim. Best run it manually using a desktop shortcut configured to Run as Admin and Start In x:\OpusFSI_v6.
 
Do not keep running PDKSETUP though and the PDKSETUP only needs to be run once to prep the sims DLL.XML files ready to launch the OpusPDK DLL.
 
Immediately open the Spy window and make sure all is OK.
 
Please try Beta 6.14.0. See above link.
 
Stephen
Back to Top
yvesamuel View Drop Down
Intermediate Group
Intermediate Group


Joined: September-05-2009
Location: France
Points: 71
Post Options Post Options   Thanks (0) Thanks(0)   Quote yvesamuel Quote  Post ReplyReply Direct Link To This Post Posted: November-21-2020 at 9:47am
Just  took off. Whithout DHM as I loaded OPU after plane at parking.
Whehre is the spy file?
As soon as you answer, I'll send it.

Yves
Back to Top
Opus Software View Drop Down
Senior Member
Senior Member


Joined: April-12-2012
Location: Grantham, UK
Points: 14895
Post Options Post Options   Thanks (0) Thanks(0)   Quote Opus Software Quote  Post ReplyReply Direct Link To This Post Posted: November-21-2020 at 9:52am
The Spy window can be opened via the addon menu or directly up using Spy button on main form. You should check all is reported ok in Spy. No need to send or post it, just check all’s ok.

Stephen
Back to Top
yvesamuel View Drop Down
Intermediate Group
Intermediate Group


Joined: September-05-2009
Location: France
Points: 71
Post Options Post Options   Thanks (0) Thanks(0)   Quote yvesamuel Quote  Post ReplyReply Direct Link To This Post Posted: November-21-2020 at 9:57am
here is the file.
 GEN  General process monitoring has been enabled ...
 GEN  Licenced User Name : Yves SAMUEL
 GEN  Licenced FSI Order : xxxxxxxx
 GEN  Device 1 : Saitek Pro Flight Rudder Pedals (Sim Joystick 1)
 GEN  Device 2 : Alpha Flight Controls (Sim Joystick 2)
 GEN  Device 3 : Throttle - HOTAS Warthog (Sim Joystick 3)
 GEN  Screen Sizes : Primary 2560 x 1440, Virtual 5210 x 2520
 GEN  FSI Stations : 26565 Opus, 8876 MetStns, 6170 Sim MetStns
 GEN  Site Effects : 97 Opus, 0 User, 97 in Total
 APP  CURRENT AVAILABLE RELEASE VERSION 6,13.0
 APP  CURRENT AVAILABLE BETA VERSION 6,14.0
 FSU  FSUIPC Not Connected At Present
 SIM  Simulator Not Connected At Present
 SIM  Link 1 established with Simulator
 SIM  Link 2 established with Simulator
 SIM  Link 3 established with Simulator
 SIM  Link 4 established with Simulator
 FSU  Link established with FSUIPC
 SIM  Event: Air Folder = PMDG 747-400
 SIM  Event: Sim Active
 LND  Touchdown QUIESCENT
 PDK  Link established with OpusPDK (6,13.0)
 PDK  OpusPDK DLL Library Version Validated
 PDK  OpusPDK View Mode = Virtual Cockpit
 PDK  OpusPDK Responding OK
 GEN  Weather Reload : Requested
 GEN  LCC Offsets : Reset To Zero
 GEN  Camera :
 SIM  Event: View Mode = 255, Virtual Cockpit, Type 0
 LND  Touchdown AIRBORNE
 MET  GRIB Forecast Data Still Valid ...
      samedi 21 novembre 2020, Cycle 06:00 Zulu, Offset 6 Hrs
 MET  Preparing METAR Data ...
 MET  Extracting GRIB Forecast: Surface ...
 MET  KBDR 211452Z 29004KT 10SM CLR 15/04 A3032 RMK AO2 SLP266 T01500044 51011
 MET  KSNC 211435Z AUTO 31006KT 10SM CLR 16/04 A3031 RMK AO2
 MET  KDXR 211353Z 00000KT 10SM CLR 10/04 A3032 RMK AO2 SLP267 T01000044
 MET  KGON 211356Z 00000KT 10SM CLR 13/06 A3030 RMK AO2 SLP259 T01280061
 MET  KHFD 211353Z 00000KT 10SM CLR 11/04 A3030 RMK AO2 SLP261 T01060044
 MET  KMMK 211353Z AUTO 00000KT 10SM CLR 08/04 A3031 RMK AO2 SLP264 T00830039
 MET  KHVN 211353Z 00000KT 10SM CLR 12/07 A3031 RMK AO2 SLP262 T01170067
 MET  KOXC 211451Z 27005KT 10SM CLR 13/04 A3032 RMK AO2 SLP282 T01280039 51013
 MET  KIJD 211452Z AUTO 00000KT 10SM CLR 12/03 A3031 RMK AO2 SLP263 T01170033 51012
 MET  KBDL 211451Z 30007KT 10SM FEW120 BKN180 BKN250 14/04 A3031 RMK AO2 SLP265  T01440044 51016
 MET  KDOV 211356Z AUTO 26004KT 10SM CLR 11/06 A3038 RMK AO2 SLP291 T01130062 $
 MET  KGED 211354Z AUTO 29004KT 10SM CLR 13/09 A3038 RMK AO2 SLP286 T01330089 $
 MET  KILG 211451Z 32004KT 10SM CLR 16/07 A3037 RMK AO2 SLP284 T01610067 50006
 MET  KANQ 211455Z AUTO VRB03KT 10SM CLR 04/M01 A3052 RMK AO2
 MET  KGWB 211435Z AUTO 36006KT 10SM CLR 04/00 A3052 RMK AO2
 MET  KFWA 211354Z 35004KT 10SM BKN110 BKN140 06/01 A3052 RMK AO2 SLP338 T00560011
 MET  KC62 211455Z AUTO 03005KT 10SM 03/00 A3053 RMK AO2 T00360004
 MET  KMIE 211353Z 35006KT 10SM FEW085 OVC110 08/04 A3051 RMK AO2 RAE14 PRESRR SLP331  P0000 T00780039
 MET  KRID 211455Z AUTO 05/05 A3049 RMK AO2 P0001 PWINO
 MET  KHLB 211435Z AUTO 02005KT 10SM OVC060 07/07 A3047 RMK A01
 MET  KDWU 211356Z AUTO 00000KT 10SM OVC022 13/12 A3043 RMK AO2 SLP306 T01330117 PNO $
 MET  KCVG 211452Z 03011KT 2 1/2SM BR OVC004 07/06 A3046 RMK AO2 SFC VIS 4 RAE50  SLP315 P0001 60005 T00720056 51015
 MET  KK62 211435Z AUTO 03004KT 2SM -DZ OVC003 09/09 A3044 RMK AO2
 MET  KFGX 211435Z AUTO 05006KT 2SM BR OVC004 12/12 A3045 RMK AO2 T01150115
 MET  KBED 211451Z 27009KT 10SM CLR 14/05 A3026 RMK AO2 SLP260 T01440050 51013
 MET  KBVY 211353Z 26007KT 10SM CLR 14/04 A3025 RMK AO2 SLP238 T01390039
 MET  KBOS 211354Z 28012KT 10SM BKN140 BKN250 14/04 A3026 RMK AO2 SLP246 T01390039
 MET  KCQX 211452Z AUTO VRB05KT 10SM CLR 16/06 A3028 RMK AO2 SLP254 T01610061 50008
 MET  KCEF 211356Z 31007KT 10SM FEW025 BKN160 BKN200 13/04 A3028 RMK AO2A SLP261  T01280042
 MET  KMQE 211451Z AUTO 28010G18KT 14/04 A3025 RMK AO1 SLP255 T01440044 51012
 MET  KFMH 211356Z 26006KT 10SM CLR 14/06 A3028
 MET  KFIT 211452Z AUTO 00000KT 10SM CLR 11/04 A3028 RMK AO2 SLP255 T01060044 51013
 MET  KHYA 211356Z 25008KT 10SM CLR 14/07 A3027 RMK AO2 SLP250 T01390067 $
 MET  KLWM 211354Z 23007KT 10SM CLR 12/04 A3027 RMK AO2 SLP249 T01220039
 MET  KGHG 211435Z AUTO VRB06KT 10SM CLR 14/05 A3026 RMK AO2
 MET  KMVY 211353Z 28007KT 10SM CLR 16/08 A3029 RMK AO2 SLP256 T01560078
 MET  KACK 211353Z 26011KT 10SM CLR 15/09 A3029 RMK AO2 SLP256 T01500094
 MET  KEWB 211353Z 27006KT 10SM CLR 14/05 A3028 RMK AO2 SLP253 T01440050
 MET  KAQW 211452Z AUTO 28010KT 10SM CLR 10/02 A3032 RMK AO2 SLP270 T01000022 51011
 MET  KOWD 211353Z 27007KT 10SM CLR 16/04 A3027 RMK AO2 SLP249 T01560044
 MET  Extracting GRIB Forecast: Atmospheric ...
 MET  KORE 211452Z AUTO 28008KT 10SM CLR 12/03 A3029 RMK AO2 SLP261 T01170033 53011
 MET  KPSF 211354Z AUTO 30012G23KT 260V330 10SM FEW022 A3029 RMK AO2 SLPNO $
 MET  KPYM 211452Z AUTO 28005KT 10SM CLR 15/04 A3027 RMK AO2 SLP250 T01500044 50009
 MET  KPVC 211356Z AUTO 24010KT 10SM CLR 13/07 A3027 RMK AO2 SLP249 T01280072
 MET  KTAN 211452Z AUTO 27008KT 10SM CLR 16/04 A3028 RMK AO2 SLP253 T01560044 51011 $
 MET  KBAF 211453Z 27011KT 10SM CLR 12/03 A3031 RMK AO2 SLP265 T01220033 51015
 MET  KORH 211354Z 27009KT 10SM CLR 12/03 A3027 RMK AO2 SLP254 T01170033
 MET  KAPG 211358Z AUTO 00000KT 10SM CLR 10/06 A3037 RMK AO2 SLP288 T00960061 $
 MET  KNAK 211354Z AUTO 00000KT 10SM BKN090 12/09 A3038 RMK AO2 SLP290 T01170089
 MET  KADW 211356Z AUTO 00000KT 10SM CLR 13/05 A3038 RMK AO2 SLP295 T01330052 $
 MET  KBWI 211354Z 00000KT 10SM SCT090 BKN150 BKN250 13/06 A3038 RMK AO2 SLP287  T01330061
 MET  KMTN 211354Z 00000KT 10SM BKN100 11/08 A3040
 MET  KCGE 211435Z AUTO 00000KT 10SM CLR 15/09 A3038 RMK A01
 MET  KRSP 211354Z AUTO 28009G15KT 250V320 10SM OVC065 12/06 A3037 RMK AO2 SLP292  T01220061 $
 MET  KDMW 211435Z AUTO 00000KT 10SM OVC080 15/08 A3037 RMK AO2
 MET  KCGS 211435Z AUTO 00000KT 10SM CLR 13/05 A3038 RMK AO1 T01300047
 MET  KCBE 211435Z AUTO 00000KT 10SM OVC065 14/09 A3043 RMK AO2 T01410089
 MET  KESN 211450Z 00000KT 10SM SCT120 16/09 A3041
 MET  KFME 211435Z AUTO 00000KT 10SM SCT100 13/06 A3040 RMK AO1
 MET  KFDK 211447Z 00000KT 10SM OVC080 13/10 A3038
 MET  K2G4 211435Z AUTO 00000KT 4SM 08/08 A3040 RMK AO1
 MET  61 Metars Downloaded
 MET  Extracting GRIB Forecast: Tropopause ...
 MET  KGAI 211356Z AUTO 13003KT 10SM -RA BKN090 BKN110 14/08 A3039 RMK AO2 RAB24  SLP306 P0000 T01440078
 MET  KHGR 211353Z 19003KT 10SM OVC075 14/06 A3038 RMK AO2 SLP297 T01390061
 MET  KW29 211435Z AUTO 27003KT 10SM CLR 13/05 A3038 RMK AO2
 MET  KLEW 211356Z AUTO 31007KT 10SM CLR 09/02 A3021 RMK AO2 SLP239 T00940017
 MET  KAUG 211353Z AUTO 30012G19KT 10SM CLR 11/01 A3021 RMK AO2 SLP231 T01110006
 MET  K40B 211316Z AUTO 25007G24KT 120V350 03/M04 A3010 RMK AO1 PK WND 24026/1306  SLP205 T00301039 52028
 MET  KIZG 211354Z AUTO 30007G15KT 250V320 10SM CLR 11/M01 A3023 RMK AO2 SLP237  T01061006
 MET  KGNR 211356Z AUTO 31012G17KT 05/M05 A3014 RMK AO1 SLP220 T00501050
 MET  KPWM 211451Z 30009KT 10SM FEW150 BKN250 12/03 A3023 RMK AO2 SLP237 60000  T01220028 51017
 MET  K8B0 211435Z AUTO 30007G16KT 10SM FEW039 SCT050 05/M04 A3020 RMK AO2
 MET  KSFM 211356Z AUTO 25005KT 10SM CLR 11/04 A3024 RMK AO2 SLP243 T01060044
 MET  KWVL 211356Z AUTO VRB03KT 10SM SCT055 09/02 A3018 RMK AO2 SLP249 T00940017
 MET  KIWI 211353Z AUTO VRB03KT 10SM CLR 11/03 A3023 RMK AO2 SLP236 T01060028
 MET  KADG 211353Z AUTO 02005KT 10SM CLR 03/00 A3052 RMK AO2 SLP342 T00280000 TSNO
 MET  KAMN 211435Z AUTO 00000KT 10SM OVC035 02/01 A3054 RMK AO2 T00240005
 MET  KAPN 211354Z AUTO 30005KT 10SM OVC040 01/M06 A3051 RMK AO2 SLP341 T00111061
 MET  KARB 211353Z 36006KT 9SM CLR 03/01 A3051 RMK AO2 SLP336 T00330006
 MET  KBAX 211435Z AUTO 31008KT 10SM OVC038 04/M03 A3051 RMK AO2 T00361031
 MET  KBTL 211353Z 01006KT 10SM CLR 02/M01 A3053 RMK AO2 SLP346 T00221006
 MET  KACB 211435Z AUTO 35003KT 10SM OVC041 02/M05 A3054 RMK AO2 T00201046
 MET  KCFS 211435Z AUTO 29003KT 10SM OVC036 04/M03 A3052 RMK AO2 T00411026
 MET  KCVX 211435Z AUTO 32007KT 10SM SCT032 OVC038 02/M05 A3053 RMK AO2 T00151046
 MET  KFPK 211435Z AUTO 33003KT 10SM SCT030 02/M01 A3053 RMK AO2 T00241010
 MET  KSLH 211435Z AUTO 31007KT 10SM OVC032 00/M06 A3051 RMK AO2
 MET  KCIU 211442Z AUTO 33006KT 9SM UP OVC031 M01/M06 A3051 RMK AO2 UPB34SNE34 P0000  FZRANO
 MET  KOEB 211435Z AUTO 02003KT 10SM CLR 02/M01 A3053 RMK AO2 T00221006
 MET  KDET 211353Z 03006KT 10SM OVC032 04/M02 A3052 RMK AO2 SLP336 T00441022
 MET  KYIP 211353Z 34005KT 10SM CLR 04/00 A3052 RMK AO2 SLP336 T00390000
 MET  KDTW 211353Z 36005KT 9SM BKN032 BKN250 04/00 A3051 RMK AO2 SLP337 T00390000
 MET  KONZ 211435Z AUTO 05007KT 10SM OVC026 06/M01 A3051 RMK AO2 T00561007
 MET  KDRM 211435Z AUTO 34003KT 10SM OVC031 00/M07 A3051 RMK AO2 T10051067
 MET  KFNT 211353Z 34004KT 10SM BKN033 03/M03 A3052 RMK AO2 SLP343 T00331033 $
 MET  KGLR 211413Z AUTO VRB03KT 10SM OVC030 01/M06 A3048 RMK AO2 T00061061
 MET  KGOV 211358Z AUTO 31003KT 10SM OVC033 00/M04 A3049 RMK AO2 SLP344 T00041043 $
 MET  KMGN 211435Z AUTO 33005KT 10SM OVC039 00/M07 A3052 RMK AO2 T00001073
 MET  KJYM 211435Z AUTO 35005KT 10SM CLR 03/00 A3051 RMK AO2 T00300000
 MET  KHTL 211353Z AUTO 30004KT 10SM OVC032 01/M05 A3050 RMK AO2 SLP342 T00111050
 MET  KOZW 211435Z AUTO 35004KT 10SM OVC029 03/M01 A3053 RMK AO2 T00311015
 MET  KY70 211435Z AUTO 31003KT 10SM CLR 02/M02 A3054 RMK AO2 T00231021
 MET  KJXN 211410Z 35003KT 10SM SCT025 03/M01 A3052 RMK AO2 T00331011
 MET  KDUH 211435Z AUTO 02003KT 10SM SCT018 04/01 A3051 RMK AO2 T00400009
 MET  KLAN 211353Z 00000KT 10SM OVC030 01/M01 A3053 RMK AO2 SLP347 T00111011
 MET  KD95 211435Z AUTO 33003KT 10SM OVC033 03/M02 A3052 RMK AO2 T00281024
 MET  KMCD 211435Z AUTO 32004KT 10SM OVC031 M01/M06 A3052 RMK AO2 T10061065
 MET  KRMY 211435Z AUTO 36004KT 10SM CLR 03/M01 A3053 RMK AO2 T00331012
 MET  KTEW 211435Z AUTO 02005KT 10SM OVC027 03/M01 A3053 RMK AO2 T00301011
 MET  KIKW 211435Z AUTO 31004KT 10SM OVC037 04/M02 A3053 RMK AO2 T00411018
 MET  KTTF 211435Z AUTO 01005KT 10SM SCT030 04/03 A3051 RMK AO2 T00400030
 MET  KMOP 211435Z AUTO 29003KT 10SM OVC037 04/M02 A3053 RMK AO2 T00411023
 MET  KOSC 211435Z AUTO 34005KT 10SM OVC040 02/M04 A3052 RMK AO2 T00221045
 MET  KRNP 211435Z AUTO 00000KT 10SM CLR 04/M02 A3054 RMK AO2 T00361019
 MET  KPLN 211354Z AUTO 32008KT 10SM OVC042 01/M06 A3052 RMK AO2 SLP344 T00061061
 MET  KPTK 211353Z 36004KT 10SM BKN030 BKN180 04/M02 A3049 RMK AO2 SLP332 T00391022
 MET  KP58 211357Z AUTO 30007KT 04/M04 A3049 RMK AO1 SLP332 T00391039
 MET  KPHN 211417Z AUTO 34005KT 10SM BKN034 03/M03 A3051 RMK AO2
 MET  KPZQ 211435Z AUTO 31008G14KT 10SM OVC035 01/M07 A3053 RMK AO2 T00081069
 MET  KMBS 211353Z 25003KT 10SM OVC037 03/M02 A3053 RMK AO2 SLP345 T00331022
 MET  KHYX 211435Z AUTO 32006KT 10SM OVC038 05/M02 A3053 RMK AO2
 MET  KANJ 211448Z AUTO VRB05KT 10SM BKN027 OVC035 M01/M07 A3051 RMK AO2 T10061067
 MET  KMTC 211359Z COR 35005KT 10SM BKN035 04/M03 A3050 RMK SLP332 WND DATA ESTMD  ALSTG/SLP ESTMD $ COR 1410
 MET  KVLL 211435Z AUTO 01004KT 10SM OVC032 04/M02 A3054 RMK AO2 T00431021
 MET  KY31 211435Z AUTO 28010KT 10SM OVC038 03/M05 A3051 RMK AO2 T00251048
 MET  62 Metars Downloaded
 MET  Extracting GRIB Forecast: Level 1 ...
 MET  KBML 211452Z AUTO 31010G20KT 10SM OVC048 09/M02 A3023 RMK AO2 SLP246 T00891017  51015
 MET  KCON 211451Z AUTO 32009KT 10SM CLR 13/03 A3026 RMK AO2 SLP249 T01280028 51016
 MET  KAFN 211452Z AUTO 30008G15KT 250V330 10SM CLR 12/02 A3027 RMK AO2 SLP259  T01170022 51014
 MET  KEEN 211356Z AUTO 00000KT 10SM CLR 03/03 A3027 RMK AO2 SLP260 T00280028 $
 MET  KLCI 211356Z AUTO 23005KT 10SM BKN044 07/04 A3025 RMK AO2 SLP246 T00720039
 MET  KLEB 211353Z 01003KT 10SM BKN040 02/M01 A3027 RMK AO2 SLP258 T00221006
 MET  KMHT 211353Z 36003KT 10SM SCT120 BKN250 08/02 A3023 RMK AO2 SLP253 T00780022
 MET  KMWN 211355Z 30058G69KT 0000 FZFG VV000 M06/M06 RMK VRY LGT ICG
 MET  KASH 211356Z 00000KT 10SM CLR 09/06 A3026 RMK AO2 SLP252 T00940056
 MET  K1P1 211435Z AUTO 30010G15KT 10SM BKN047 09/00 A3026 RMK AO2 T00911003
 MET  KPSM 211356Z COR 00000KT 10SM BKN130 BKN200 11/02 A3023 RMK AO2A SLP240  T01140019 COR 1405
 MET  KDAW 211451Z AUTO VRB05KT 10SM CLR 14/03 A3024 RMK AO2 SLP237 T01390033 51014
 MET  KHIE 211452Z AUTO 32007KT 10SM FEW035 BKN045 07/M01 A3026 RMK AO2 SLP258  T00671011 51015
 MET  K12N 211354Z AUTO 00000KT 09/05 A3035 RMK AO1 SLP283 T00890050
 MET  KACY 211354Z 28003KT 10SM CLR 12/06 A3036 RMK AO2 SLP282 T01220061
 MET  KBLM 211356Z AUTO 27005KT 10SM CLR 12/04 A3036 RMK AO2 SLP282 T01170039
 MET  KCDW 211353Z 00000KT 10SM CLR 14/03 A3034 RMK AO2 SLP279 T01390033
 MET  KNEL 211400Z AUTO 30004KT 10SM CLR A3035 RMK AO2 SLPNO FZRANO $
 MET  KLDJ 211435Z AUTO 28005KT 10SM CLR 15/04 A3035 RMK AO2 T01510036
 MET  KMIV 211354Z AUTO 27003KT 10SM CLR 11/06 A3037 RMK AO2 SLP282 T01110056
 MET  KMMU 211445Z 30005KT 10SM BKN250 15/07 A3034
 MET  KVAY 211354Z AUTO 00000KT 10SM CLR 12/05 A3036 RMK AO2 SLP281 T01170050
 MET  KEWR 211451Z 26005KT 10SM FEW080 SCT150 BKN250 17/04 A3034 RMK AO2 SLP273  T01670039 50008
 MET  KSMQ 211353Z AUTO 00000KT 10SM CLR 09/04 A3034 RMK AO2 SLP274 T00940039
 MET  KFWN 211353Z AUTO 00000KT 10SM CLR 07/03 A3034 RMK AO2 RAB06E15 SLP276 P0000  T00670028
 MET  KTEB 211451Z VRB04KT 10SM CLR 16/05 A3032 RMK AO2 SLP267 T01610050 50007
 MET  KMJX 211356Z AUTO 31005KT 10SM CLR 13/05 A3036 RMK AO2 SLP284 T01280050
 MET  KTTN 211353Z 30006KT 10SM CLR 12/04 A3036 RMK AO2 SLP273 T01220039
 MET  KWWD 211356Z AUTO 10SM CLR 13/08 A3038 RMK AO2 SLP288 T01280083 $
 MET  KWRI 211356Z AUTO 00000KT 10SM CLR 14/05 A3035 RMK AO2 SLP277 T01390045 $
 MET  KALB 211451Z 29013KT 10SM FEW024 FEW037 BKN220 07/00 A3037 RMK AO2 PK WND  28028/1435 SLP285 T00670000 51017
 MET  KBGM 211353Z 32006KT 10SM FEW022 04/01 A3036 RMK AO2 SLP290 T00440006
 MET  KBUF 211354Z 32009KT 10SM OVC032 05/M02 A3045 RMK AO2 SLP315 T00501017
 MET  KN03 211435Z AUTO 00000KT 10SM OVC028 05/00 A3039 RMK AO2
 MET  KDSV 211434Z AUTO 32011KT 10SM SCT025 OVC033 06/01 A3044 RMK AO2 T00610011
 MET  KDKK 211353Z AUTO 33008KT 10SM OVC024 06/01 A3047 RMK AO2 SLP320 T00610006
 MET  KHTO 211435Z AUTO 31003KT 10SM CLR 15/05 A3031 RMK AO2 T01500049
 MET  KELM 211353Z 01003KT 10SM OVC029 08/03 A3040 RMK AO2 SLP298 T00780033
 MET  KFRG 211353Z 27005KT 10SM CLR 14/04 A3032 RMK AO2 SLP269 T01390044
 MET  39 Metars Downloaded
 MET  Extracting GRIB Forecast: Level 2 ...
 MET  KGTB 211356Z AUTO 30005KT 10SM OVC036 04/M02 A3039 RMK AO2 SLP295 T00431019
 MET  KFZY 211354Z AUTO 30009KT 10SM OVC040 07/M01 A3043 RMK AO2 SLP304 T00671006
 MET  KGFL 211353Z AUTO 22003KT 10SM CLR 06/03 A3032 RMK AO2 SLP275 T00610028
 MET  KVGC 211435Z AUTO 33008G11KT 10SM BKN022 BKN029 05/00 A3039 RMK AO2
 MET  KISP 211356Z 27003KT 10SM FEW070 FEW150 SCT250 14/06 A3031 RMK AO2 SLP265  T01390061
 MET  KITH 211356Z 34008KT 10SM CLR 06/01 A3040 RMK AO2 SLP297 T00560011
 MET  KJHW 211356Z AUTO 35006KT 10SM BKN011 OVC018 03/01 A3042 RMK AO2 SLP318  T00330011
 MET  KNY0 211437Z AUTO 35007KT 10SM SCT031 05/M01 A3036 RMK AO2
 MET  KJRB 211356Z AUTO 22004KT 10SM CLR 13/04 A3035 RMK AO2 SLP278 T01280044
 MET  KMSS 211453Z AUTO 29013G18KT 10SM BKN027 BKN034 OVC055 05/M02 A3041 RMK AO2  SLP302 T00501017 51025
 MET  KMTP 211354Z AUTO 26004KT 13/07 A3032 RMK AO1 SLP265 T01330072
 MET  KMGJ 211354Z AUTO 25006KT 10SM CLR 11/04 A3032 RMK AO2 SLP266 T01060044
 MET  KMSV 211356Z AUTO VRB04KT 10SM CLR 08/04 A3033 RMK AO2 SLP278 T00830039
 MET  KSWF 211445Z 26007KT 10SM BKN080 14/05 A3033
 MET  KIAG 211353Z 30008KT 10SM OVC029 04/M02 A3046 RMK AO2 SLP322 T00391017
 MET  KJFK 211451Z 26007KT 10SM FEW150 SCT250 16/07 A3034 RMK AO2 SLP274 T01610067  50009 $
 MET  KLGA 211451Z 27006KT 10SM FEW080 FEW150 SCT250 17/03 A3033 RMK AO2 SLP269  T01670033 51009
 MET  KNYC 211451Z AUTO 26005KT 10SM CLR 15/03 A3035 RMK AO2 SLP270 T01500033 51009 $
 MET  KOGS 211435Z AUTO 30011KT 10SM BKN046 05/M02 A3039 RMK AO2
 MET  KOLE 211435Z AUTO 31003KT 10SM OVC015 02/00 A3039 RMK AO2
 MET  KPEO 211353Z AUTO 33007KT 10SM SCT021 OVC030 06/02 A3042 RMK AO2 SLP305  T00610017
 MET  KPTD 211435Z AUTO 30007G14KT 260V320 10SM BKN046 04/M02 A3040 RMK AO2
 MET  KPOU 211353Z 01003KT 10SM CLR 08/04 A3031 RMK AO2 SLP263 T00830039
 MET  KROC 211354Z 32008KT 10SM OVC033 05/M01 A3045 RMK AO2 SLP317 T00501006
 MET  KRME 211353Z 31007KT 10SM BKN038 06/01 A3041 RMK AO2 SLP300 T00610006
 MET  KSLK 211451Z AUTO VRB05KT 10SM SCT029 OVC034 03/M03 A3032 RMK AO2 SLP279  T00281033 51021
 MET  KSCH 211452Z 29013KT 15SM BKN250 08/01 A3037
 MET  KHWV 211356Z AUTO 00000KT 10SM CLR 14/04 A3032 RMK AO2 SLP267 T01390039
 MET  K6B9 211435Z AUTO 31006KT 10SM BKN022 OVC029 06/01 A3041 RMK AO2
 MET  KSYR 211354Z 31008KT 10SM BKN036 07/M01 A3042 RMK AO2 SLP299 T00721006
 MET  KART 211356Z AUTO 31008KT 10SM CLR 06/M01 A3041 RMK AO2 SLP299 T00611011 $
 MET  KELZ 211356Z AUTO 33008KT 10SM OVC016 05/02 A3039 RMK AO2 SLP303 T00500022 $
 MET  KFOK 211353Z 00000KT 10SM CLR 12/06 A3033 RMK AO2 SLP269 T01220061
 MET  KHPN 211356Z 27005KT 10SM CLR 13/03 A3031 RMK AO2 SLP264 T01280028
 MET  KSDC 211435Z AUTO 00000KT 10SM OVC029 06/M01 A3045 RMK AO2
 MET  KAKR 211354Z AUTO 04004KT 10SM BKN017 OVC110 09/04 A3044 RMK AO2 SLP309  T00890039
 MET  KCAK 211451Z 34007KT 7SM OVC013 07/06 A3047 RMK AO2 SLP326 T00720056 53016
 MET  KHZY 211353Z AUTO VRB06KT 10SM OVC019 06/02 A3046 RMK AO2 SLP320 T00610022
 MET  KUNI 211435Z AUTO 36004KT 7SM OVC020 11/11 A3044 RMK AO2 T01090107
 MET  KI69 211435Z AUTO 03005KT 3SM DZ OVC004 08/07 A3048 RMK AO2 P0001 T00770073
 MET  KEDJ 211435Z AUTO 03004KT 9SM CLR 05/05 A3049 RMK AO1
 MET  KCDI 211435Z AUTO 00000KT 10SM RA OVC075 09/07 A3046 RMK AO2 T00850071
 MET  KRZT 211435Z AUTO 34004KT 3SM BKN015 BKN024 OVC030 07/07 A3047 RMK AO2 P0001  PWINO
 MET  KLUK 211451Z 03004KT 4SM -RA BR FEW011 BKN045 OVC050 08/07 A3049 RMK AO2 P0001
 MET  KBKL 211353Z 03009KT 10SM OVC021 08/03 A3047 RMK AO2 SLP318 T00830028
 MET  KCLE 211451Z 02007KT 10SM OVC023 08/03 A3047 RMK AO2 SLP339 T00780033 53014
 MET  KCGF 211445Z 03008KT 20SM OVC020 07/02 A3048
 MET  KCMH 211451Z 35007KT 10SM -RA OVC070 07/06 A3047 RMK AO2 SLP320 P0001 60008  T00720056 51018 $
 MET  KOSU 211353Z 35005KT 10SM -RA BKN070 OVC080 07/05 A3046 RMK AO2 SLP316 P0002  T00670050
 MET  KTZR 211450Z 36007KT 7SM -DZ OVC080 07/05 A3047
 MET  KDAY 211356Z 35007KT 6SM -RA BR BKN075 OVC090 07/06 A3049 RMK AO2 SLP328 P0001  T00670061
 MET  KMGY 211353Z AUTO 04005KT 10SM -RA OVC070 07/04 A3046 RMK AO2 RAE1254B43 SLP316  P0000 T00720044
 MET  KI19 211435Z AUTO 00000KT 5SM DZ SCT033 SCT046 OVC070 06/06 A3050 RMK AO2 P0001  T00620060
 MET  KDFI 211353Z AUTO 34005KT 10SM CLR 06/01 A3052 RMK AO2 SLP338 T00560006
 MET  KDLZ 211435Z AUTO 35005KT 7SM RA SCT044 BKN049 OVC090 06/05 A3048 RMK AO2 P0004
 MET  Extracting GRIB Forecast: Level 3 ...
 MET  KFDY 211448Z AUTO 35005KT 10SM BKN020 07/02 A3049 RMK AO2
 MET  KHAO 211353Z AUTO 00000KT 10SM SCT021 BKN037 OVC060 08/06 A3049 RMK AO2 RAE43  SLP324 P0002 T00780056
 MET  57 Metars Downloaded
 MET  KI67 211435Z AUTO 02004KT 10SM SCT041 OVC060 07/05 A3049 RMK AO1
 MET  KLHQ 211353Z AUTO 00000KT 5SM -RA BR FEW033 OVC080 09/07 A3045 RMK AO2  RAE1259B24 SLP311 P0001 T00890072
 MET  KI68 211435Z AUTO 36003KT 10SM -RA CLR 07/07 A3048 RMK AO1 T00730073
 MET  KAOH 211353Z AUTO 36004KT 10SM FEW014 SCT080 OVC100 06/02 A3049 RMK AO2  RAB1257E11 SLP328 P0000 T00610022
 MET  KUYF 211435Z AUTO 36006KT 7SM -RA BKN070 OVC080 06/05 A3047 RMK AO2
 MET  KLPR 211353Z AUTO 01004KT 10SM OVC025 07/01 A3048 RMK AO2 SLP325 T00720006
 MET  KMFD 211452Z 02004KT 10SM BKN016 BKN100 07/04 A3047 RMK AO2 SLP322 T00720039  51015
 MET  KMNN 211353Z AUTO 36007KT 8SM FEW013 SCT080 OVC120 07/03 A3048 RMK AO2 SLP327  T00670033
 MET  KMRT 211435Z AUTO 01005KT 7SM SCT035 SCT046 BKN085 06/05 A3049 RMK AO2 P0002  T00570045
 MET  KMWO 211435Z AUTO 05005KT 10SM -RA OVC070 07/06 A3050 RMK AO2 P0001 T00700059
 MET  K4I3 211435Z AUTO 34006KT 06/05 A3048 RMK AO2 SKY OBSCURED P0005 PWINO
 MET  KPHD 211450Z AUTO VRB03KT 8SM -RA OVC014 09/07 A3046 RMK AO2 RAB33 P0000
 MET  KVTA 211354Z AUTO 33003KT 8SM -RA BKN065 OVC080 09/06 A3044 RMK AO2 SLP311 P0005  T00890061
 MET  KOWX 211435Z AUTO 01006KT 10SM SCT016 SCT120 06/00 A3053 RMK AO1
 MET  KPCW 211435Z AUTO 06007KT 10SM OVC027 06/01 A3050 RMK AO2
 MET  KLCK 211355Z AUTO 33005KT 10SM -RA SCT025 BKN085 OVC090 07/06 A3046 RMK AO2  T00680055
 MET  KSGH 211356Z AUTO 00000KT 6SM -RA BR OVC070 06/06 A3047 RMK AO2 SLP323 T00610061  PNO $
 MET  KTDZ 211353Z AUTO VRB04KT 10SM OVC022 06/02 A3051 RMK AO2 SLP335 T00610017 $
 MET  KTOL 211452Z VRB04KT 10SM CLR 06/01 A3052 RMK AO2 SLP338 T00610006 51017 $
 MET  KVES 211435Z AUTO 35008KT 10SM -RA SCT047 05/05 A3050 RMK AO2 P0002
 MET  KAXV 211435Z AUTO 36006KT 10SM SCT120 05/02 A3050 RMK AO2
 MET  KI23 211435Z AUTO 01005KT 7SM CLR 06/04 A3046 RMK AO1 P0003
 MET  KLNN 211435Z AUTO 04007KT 10SM OVC025 07/00 A3049 RMK AO1 T00700004
 MET  KILN 211409Z AUTO 03008KT 5SM -RA BR SCT015 OVC060 07/05 A3046 RMK AO2 P0001  T00670050
 MET  KBJJ 211356Z AUTO 36007KT 10SM BKN016 OVC095 07/04 A3046 RMK AO2 SLP320  T00670039
 MET  KFFO 211442Z AUTO 02004KT 10SM -RA OVC070 07/04 A3048 RMK AO2  RAB1356E08DZB08E13RAB42 SLP328
 MET  KYNG 211451Z 34006KT 10SM OVC014 07/03 A3046 RMK AO2 SLP319 T00720028 53012
 MET  KZZV 211353Z AUTO 36004KT 9SM -RA OVC075 08/06 A3044 RMK AO2 SLP310 P0002  T00830061
 MET  KABE 211451Z 00000KT 10SM CLR 13/06 A3036 RMK AO2 SLP283 T01280056 51009
 MET  KXLL 211435Z AUTO 22003KT 10SM CLR 13/05 A3037 RMK AO2
 MET  KAOO 211353Z AUTO 00000KT 10SM OVC080 12/06 A3039 RMK AO2 SLP290 T01170061
 MET  KAVP 211354Z 30005KT 10SM CLR 09/04 A3037 RMK AO2 SLP283 T00940039
 MET  KBVI 211447Z AUTO 35006KT 10SM OVC110 07/03 A3044
 MET  KHMZ 211435Z AUTO 31004KT 10SM OVC070 12/07 A3039 RMK AO2 T01180071
 MET  KBFD 211427Z AUTO 34006KT 10SM BKN013 06/01 A3038 RMK AO2 T00610011
 MET  KBTP 211429Z AUTO 34005KT 10SM BKN010 08/06 A3043 RMK AO2 PNO $
 MET  Extracting GRIB Forecast: Level 4 ...
 MET  KFIG 211354Z AUTO 35003KT 10SM OVC110 09/04 A3039 RMK AO2 SLP294 T00890044
 MET  KMQS 211435Z AUTO 00000KT 10SM CLR 14/06 A3038 RMK AO2
 MET  KDYL 211354Z AUTO 20004KT 10SM CLR 12/03 A3035 RMK AO2 SLP280 T01170033
 MET  KDUJ 211353Z AUTO 35006KT 8SM OVC110 06/03 A3039 RMK AO2 SLP296 T00610033
 MET  KERI 211451Z 36007KT 10SM OVC025 06/M01 A3048 RMK AO2 SLP325 T00611006 51016
 MET  KFKL 211356Z AUTO 00000KT 10SM OVC014 06/03 A3042 RMK AO2 RAB24E46 SLP310 P0000  T00560028
 MET  KCXY 211356Z 00000KT 10SM SCT100 11/04 A3037 RMK AO2 SLP287 T01110044
 MET  KHZL 211435Z AUTO 29004KT 10SM CLR 12/04 A3038 RMK AO2
 MET  KIDI 211435Z AUTO 00000KT 10SM OVC095 10/06 A3042 RMK A01
 MET  KJST 211354Z AUTO 27007KT 10SM OVC070 09/06 A3039 RMK AO2 RAB33E45 SLP293 P0000  T00940056
 MET  KLNS 211353Z 00000KT 7SM FEW110 09/04 A3037 RMK AO2 SLP284 T00940039
 MET  KLBE 211445Z 00000KT 10SM FEW038 OVC075 10/10 A3040
 MET  K22N 211435Z AUTO 00000KT 10SM CLR 08/04 A3037 RMK AO2
 MET  KGKJ 211421Z AUTO 10SM OVC014 06/02 A3043 RMK AO2 T00560022
 MET  KMDT 211356Z 00000KT 10SM FEW110 SCT160 09/04 A3036 RMK AO2 SLP283 T00890044 $
 MET  KMPO 211353Z AUTO 29009KT 10SM CLR 09/03 A3033 RMK AO2 SLP276 T00890028 $
 MET  KMUI 211356Z AUTO 20003KT 10SM FEW130 FEW160 09/06 A3036 RMK AO2 SLP286  T00870056
 MET  KUCP 211410Z AUTO 02004KT 10SM FEW018 BKN090 OVC120 07/03 RMK AO2 PWINO $
 MET  KCKZ 211435Z AUTO 00000KT 10SM CLR 13/05 A3037 RMK AO2
 MET  KPHL 211354Z 25003KT 10SM FEW080 FEW160 SCT250 11/06 A3037 RMK AO2 SLP284  T01060061
 MET  KPNE 211354Z 00000KT 10SM CLR 14/07 A3037 RMK AO2 SLP284 T01390067
 MET  KLOM 211435Z AUTO 00000KT 10SM CLR 15/06 A3037 RMK AO2 T01460056
 MET  KAGC 211353Z 35004KT 10SM FEW041 OVC080 10/06 A3039 RMK AO2 SLP298 T01000061
 MET  KPIT 211451Z 33007KT 10SM FEW070 OVC095 08/06 A3043 RMK AO2 SLP313 60000  T00830056 53012
 MET  KPTW 211354Z AUTO 22003KT 10SM CLR 09/03 A3038 RMK AO2 SLP285 T00890033
 MET  KUKT 211435Z AUTO 22004KT 10SM CLR 15/06 A3036 RMK A01
 MET  KRDG 211354Z 20003KT 10SM CLR 09/05 A3035 RMK AO2 SLP285 T00940050 $
 MET  KSEG 211353Z AUTO 00000KT 8SM CLR 11/06 A3037 RMK AO2 SLP287 T01110061
 MET  K2G9 211435Z AUTO 26004KT 10SM OVC065 09/06 A3039 RMK AO2
 MET  KUNV 211453Z 30003KT 10SM OVC110 10/05 A3039
 MET  66 Metars Downloaded
 MET  KAFJ 211356Z AUTO 00000KT 10SM -RA OVC075 09/09 A3044 RMK AO2 RAB1258 SLP308  P0001 T00890089
 MET  Extracting GRIB Forecast: Level 5 ...
 MET  KOQN 211435Z AUTO 26004KT 10SM CLR 15/05 A3037 RMK AO2
 MET  KIPT 211354Z 00000KT 10SM CLR 07/03 A3037 RMK AO2 SLP288 T00670033
 MET  KTHV 211353Z AUTO 00000KT 10SM CLR 12/06 A3037 RMK AO2 SLP286 T01170061
 MET  KBID 211356Z AUTO 27009KT 10SM CLR 13/09 A3031 RMK AO2 SLP265 T01330089
 MET  KOQU 211440Z 30011KT 10SM SCT200 12/07 A3029
 MET  KUUU 211353Z AUTO VRB03KT 10SM CLR 13/05 A3029 RMK AO2 SLP256 T01330050
 MET  KSFZ 211356Z AUTO 29006KT 10SM CLR 13/04 A3028 RMK AO2 SLP201 T01330044
 MET  KPVD 211451Z 27007KT 10SM SCT250 16/04 A3029 RMK AO2 SLP258 T01560039 51011
 MET  KWST 211353Z AUTO VRB03KT 10SM CLR 14/04 A3030 RMK AO2 SLP260 T01390039
 MET  KCJR 211435Z AUTO 00000KT 10SM CLR 12/06 A3040 RMK AO2 T01200057
 MET  KDAA 211356Z AUTO 00000KT 10SM SCT140 10/05 A3039 RMK AO2 SLP294 T00970053 $
 MET  KFRR 211435Z AUTO 00000KT 10SM OVC044 12/03 A3038 RMK AO1
 MET  KJYO 211435Z AUTO 03004KT 10SM BKN065 OVC075 16/11 A3038 RMK AO2
 MET  KHEF 211356Z 00000KT 10SM FEW040 08/04 A3039 RMK AO2 RAB40E56 SLP298 P0000  T00830044
 MET  KHWY 211435Z AUTO 00000KT 10SM CLR 14/06 A3038 RMK AO2 T01410055
 MET  KIAD 211452Z 20004KT 10SM -DZ BKN055 BKN110 14/08 A3038 RMK AO2 DZB50 SLP286  P0000 60000 T01440083 51006
 MET  KOKV 211435Z AUTO 24004KT 10SM OVC046 13/08 A3037 RMK AO2
 MET  KDDH 211354Z AUTO 28013G18KT 10SM CLR 09/02 A3031 RMK AO2 SLP266 T00890022
 MET  KBTV 211354Z 31007G17KT 10SM BKN050 08/M01 A3032 RMK AO2 SLP269 T00781011
 MET  KFSO 211435Z AUTO 00000KT 10SM OVC031 07/00 A3034 RMK AO2 T00650000
 MET  KCDA 211435Z AUTO 28007KT 240V310 10SM OVC028 05/M01 A3028 RMK AO2 T00531011
 MET  K6B0 211435Z AUTO 34003KT 10SM OVC044 07/00 A3032 RMK AO2 T00741001
 MET  KMVL 211354Z AUTO 31010G15KT 10SM FEW037 SCT045 BKN055 07/M01 A3030 RMK AO2  SLP266 T00721006
 MET  KMPV 211451Z AUTO 31017G24KT 10SM FEW042 07/M02 A3032 RMK AO2 SLP275 T00721022  51015
 MET  KEFK 211441Z AUTO 32006KT 10SM OVC031 05/M02 A3030 RMK AO2
 MET  KRUT 211356Z AUTO 33012G16KT 10SM CLR 08/01 A3029 RMK AO2 SLP257 P0001 T00780011  $
 MET  KVSF 211354Z AUTO 32005KT 10SM BKN036 05/02 A3028 RMK AO2 SLP259 T00500017
 MET  K1V4 211254Z AUTO 01/M01 A3025 RMK AO1 SLP252 T00111011
 MET  KW22 211435Z AUTO 00000KT M1/4SM FG OVC002 11/ A3042 RMK AO2
 MET  KCKB 211443Z 20003KT 6SM BR BKN019 OVC044 12/12 A3042 RMK AO2 RAB10E19 P0000  T01220117
 MET  KEKN 211451Z AUTO 00000KT 2 1/2SM -RA BR OVC013 12/09 A3042 RMK AO2 RAB46 SLP310  P0000 60000 T01170094 53004
 MET  KMRB 211353Z 04003KT 10SM OVC065 13/10 A3037 RMK AO2 SLP287 T01330100
 MET  KMGW 211450Z 22003KT 9SM SCT007 BKN025 OVC055 13/10 A3042 RMK AO2
 MET  KPKB 211445Z 33004KT 5SM BR BKN009 OVC025 12/11 A3044 RMK AO2 T01220111 $
 MET  K3I2 211435Z AUTO 00000KT 2 1/2SM -RA SCT004 SCT007 OVC020 13/13 A3045 RMK AO2  T01300130
 MET  KW99 211435Z AUTO 00000KT 10SM OVC035 14/11 A3040 RMK AO2 T01410106
 MET  KHLG 211353Z AUTO 00000KT 9SM OVC080 10/07 A3041 RMK AO2 RAB20E47 SLP303 P0000  T01000072
 MET  KDCA 211452Z 20003KT 10SM FEW050 BKN080 BKN150 BKN230 13/07 A3039 RMK AO2 SLP291  T01280067 50006
 MET  CWRK 211400Z AUTO 28001KT 01/M04 RMK AO1 SLP306 T00081044 52021
 MET  CXBI 211400Z AUTO 31006KT 02/M01 RMK AO1 SOG 08 1018 SLP316 T00181012
 MET  CWWB 211400Z AUTO 31008KT 05/M03 RMK AO1 SLP323 T00491028 51016
 MET  CYLD 211426Z 00000KT 15SM -SN OVC009 M08/M10 A3047 RMK SC8 SLP354
 MET  CYCK 211400Z AUTO 02007KT 9SM FEW030 03/01 A3049 RMK SLP330
 MET  CWNC 211400Z AUTO 29003KT 05/M01 RMK AO1 SLP315 T00451012 51016
 MET  CWCO 211400Z AUTO 28006KT 03/M01 RMK AO1 PK WND 34021/1311 SLP319 T00281010  51018
 MET  CWWX 211400Z AUTO 02012KT 02/M03 RMK AO1 PK WND 01021/1301 SLP320 T00221034  51017
 MET  CXDI 211400Z AUTO 01005KT 04/M01 RMK AO1 SLP328 T00391014 51013
 MET  49 Metars Downloaded
 MET  Extracting GRIB Forecast: Level 6 ...
 MET  CYXR 211453Z AUTO 31008KT 9SM OVC020 M05/M09 A3049 RMK SLP342
 MET  CXET 211400Z AUTO 31006KT 02/M01 RMK AO1 SLP323 T00201010 51018
 MET  CZEL 211400Z AUTO 30007KT 02/M02 RMK AO1 SLP332 T00171015 51016
 MET  CWAJ 211400Z AUTO 33004KT 04/01 RMK AO1 SLP327 T00350014 51015
 MET  CWGD 211400Z AUTO 33010G16KT 03/M02 RMK AO1 SLP344 T00321018 53016
 MET  CYZE 211436Z AUTO 36007KT 9SM -SN SCT023 OVC031 M00/M04 A3048 RMK SLP333
 MET  CWNL 211400Z AUTO 33006KT 01/M05 RMK AO1 SLP331 T00101050
 MET  CWGH 211400Z AUTO 33002KT 05/M03 RMK AO1 SLP303 T00481028 51023
 MET  CYHM 211400Z 32006KT 15SM BKN034 04/M03 A3046 RMK SC7 SLP324
 MET  CXHM 211400Z AUTO 31002KT 05/M03 RMK AO1 SLP324 T00481030 51016
 MET  CXHA 211400Z AUTO 03005KT 04/M00 RMK AO1 SLP336 T00421001 53018
 MET  CYYU 211400Z 27007KT 9SM -SN OVC019 M09/M12 A3051 RMK SC8 SLP352
 MET  CXKA 211400Z AUTO 30009KT M09/M12 RMK AO1 SOG 02 3015 SLP346 T10881121
 MET  CXKE 211400Z AUTO 31007KT 03/M02 RMK AO1 SLP293 T00301016 51025
 MET  CWBE 211400Z AUTO 03004KT M01/M06 RMK AO1 SLP330 T10111060 53022
 MET  CYGK 211400Z 30010KT 15SM BKN042 BKN240 04/M02 A3042 RMK SC6CI1 SLP305
 MET  CXKI 211400Z AUTO M06/M09 RMK AO1 SLP333 T10591087 51019
 MET  CWGL 211400Z AUTO 32006KT 02/M01 RMK AO1 SLP296 T00171007 51019
 MET  CYXU 211400Z 36005KT 15SM FEW018 OVC035 03/M00 A3048 RMK SC2SC6 SLP329
 MET  CWLS 211400Z AUTO 30004KT 01/M02 RMK AO1 SLP330 T00071015 53015
 MET  CYQA 211400Z AUTO 31006KT 9SM BKN027 OVC035 01/M04 A3042 RMK SLP315
 MET  CWNZ 211400Z AUTO 28002KT M10/M13 RMK AO1 SOG 11 1006 SLP354 T11031133
 MET  CYYB 211400Z 01007KT 340V040 30SM SCT030 BKN044 BKN120 M04/M09 A3042 RMK  SC4SC2AC1 SN SH S SLP323
 MET  CYOO 211400Z AUTO 28008KT 9SM OVC041 03/01 A3045 RMK SLP316
 MET  CYOW 211400Z 29010G16KT 15SM FEW020 BKN046 03/M03 A3039 RMK SC1SC6 SC TR SLP297
 MET  CXPC 211400Z AUTO 02/M05 RMK AO1 SLP306 T00171053 51018
 MET  CYWA 211400Z AUTO 34009KT 9SM OVC034 OVC080 01/M07 A3043 RMK SLP312
 MET  CYPQ 211400Z AUTO /////KT 9SM OVC030 03/M03 A3043 RMK WND MISG SLP313
 MET  CWQP 211400Z AUTO 31012KT 05/M02 RMK AO1 PK WND 32017/1350 SLP318 T00511015  51018
 MET  CWPC 211400Z AUTO 34008KT 04/M02 RMK AO1 SLP325 T00421016 51016
 MET  CWWZ 211400Z AUTO 30012KT 06/01 RMK AO1 SLP322 T00560008 51017
 MET  CYZR 211400Z AUTO 34008KT 9SM OVC035 05/M02 A3049 RMK SLP333
 MET  CYAM 211427Z 33008G15KT 20SM -SHSN BKN029 M01/M06 A3051 RMK CU7 SLP345
 MET  CYSN 211400Z 30009KT 15SM BKN035 05/M02 A3046 RMK SC7 SLP319
 MET  CYSB 211400Z 32007KT 20SM OVC019 M04/M09 A3046 RMK SC8 SLP334
 MET  CYTS 211451Z 32005KT 2 1/2SM -SN OVC018 M07/M10 A3050 RMK SC8 SLP350
 MET  CYTZ 211400Z AUTO 27005KT 9SM OVC039 05/M02 A3046 RMK SLP320
 MET  CYYZ 211400Z 31008KT 15SM OVC032 04/M02 A3045 RMK SC8 SLP319
 MET  CXTO 211400Z AUTO 05/M03 RMK AO1 SLP321 T00511032 51013
 MET  CYTR 211400Z 32009KT 15SM FEW030 FEW200 04/M04 A3044 RMK SC1CI1 CI TR SLP312
 MET  CXVN 211400Z AUTO 30007KT 05/M02 RMK AO1 SLP323 T00511020 51018
 MET  CYKF 211426Z AUTO 29007KT 9SM SCT022 OVC031 03/M01 A3046 RMK SLP325
 MET  CYXZ 211443Z 32003KT 200V360 15SM BKN017 BKN027 M07/M10 A3051 RMK SC6SC1 SLP354
 MET  CWMZ 211400Z AUTO 30015KT 03/M03 RMK AO1 PK WND 31021/1324 SLP311 T00291034  53017
 MET  CYVV 211400Z 32005KT 300V010 15SM OVC025 01/M04 A3046 RMK SC8 SLP325
 MET  CYQG 211400Z AUTO 36008KT 9SM OVC030 04/M03 A3051 RMK SLP338
 MET  CTCK 211400Z AUTO 30008G15KT 04/M01 RMK AO1 SLP285 T00401011 53029
 MET  CTNK 211400Z AUTO 02002KT M01/M04 RMK AO1 SLP304 T10111035 51024
 MET  CYBG 211400Z 31013G21KT 20SM FEW040 M02/M08 A3024 RMK SC2 SLP249
 MET  CWHV 211400Z AUTO 28009G17KT 04/M04 RMK AO1 PK WND 32017/1355 SLP236 T00411037  51030
 MET  CXBO 211400Z AUTO 25013G21KT 05/M06 RMK AO1 PK WND 27021/1350 T00451062
 MET  CWTN 211400Z AUTO 27007KT 04/M04 RMK AO1 SLP236 T00361035 51045
 MET  CWEE 211300Z AUTO M07/M08 RMK AO1 T10661075 52037
 MET  CWIS 211400Z AUTO 27004KT M03/M07 RMK AO1 SOG 11 3036 SLP213 T10251071
 MET  54 Metars Downloaded
 MET  Extracting GRIB Forecast: Level 7 ...
 MET  CYMT 211440Z AUTO 31009KT 6SM BR OVC009 M07/M08 A3028 RMK SLP282
 MET  CWDT 211300Z AUTO 29008KT RMK AO1 18 3034
 MET  CWHQ 211400Z AUTO 31009KT 02/M04 RMK AO1 T00201036
 MET  CWFQ 211400Z AUTO 32004KT 05/M01 RMK AO1 SLP263 T00491014 51022
 MET  CYND 211400Z 31010G17KT 15SM SCT050 02/M04 A3039 RMK SC4 SLP296
 MET  CXHF 211400Z AUTO 01/M03 RMK AO1 T00101029
 MET  CWIG 211400Z AUTO 26014G19KT RMK AO1 PK WND 30023/1311
 MET  CWER 211400Z AUTO 25011G16KT RMK AO1 PK WND 27020/1309
 MET  CWAF 211400Z AUTO 30024G33KT 01/M07 RMK AO1 PK WND 30033/1312 T00071071
 MET  CWJO 211400Z AUTO 29015G22KT M02/M07 RMK AO1 PK WND 29026/1331 SLP256 T10181072  51039
 MET  CWIZ 211400Z AUTO 30005KT 06/M02 RMK AO1 T00561016
 MET  CWEW 211400Z AUTO 30011G18KT 05/M04 RMK AO1 PK WND 31018/1356 SLP281 T00521040  51030
 MET  CWUX 211400Z AUTO 30014G23KT M02/M09 RMK AO1 PK WND 31025/1304 SLP242 T10231092  51040
 MET  CWST 211400Z AUTO 31012G18KT 04/M06 RMK AO1 PK WND 30022/1310 SLP222 T00381055  51048
 MET  CWDQ 211400Z AUTO 31011G16KT M02/M08 RMK AO1 PK WND 32019/1310 SLP274 T10151079  53041
 MET  CWTT 211400Z AUTO 35003KT 05/M03 RMK AO1 T00501032
 MET  CWBS 211400Z AUTO 31008KT 04/M02 RMK AO1 T00361017
 MET  CWQH 211400Z AUTO 31011KT 05/M04 RMK AO1 PK WND 31018/1340 SLP254 T00491041  51026
 MET  CWMJ 211400Z AUTO 34008KT M00/M06 RMK AO1 PK WND 34017/1318 SLP303 T10021063  53033
 MET  CYNM 211454Z AUTO 31012G17KT 2 1/2SM -SN OVC010 M08/M09 A3042 RMK VIS VRB 1  3/4-3 SLP325
 MET  CWTA 211400Z AUTO 01007KT 05/M02 RMK AO1 SLP274 T00511023 51029
 MET  CWIX 211300Z AUTO 30016KT M03/M09 RMK AO1 23 1041 SLP242 T10271088
 MET  CYUL 211400Z 33009KT 20SM BKN058 BKN062 05/M02 A3034 RMK SC6SC1 SLP276
 MET  CYMX 211400Z 33014G24KT 45SM FEW025 BKN048 03/M06 A3035 RMK SC1SC7 SC TR SLP281
 MET  CWNQ 211400Z AUTO 33006KT 04/M03 RMK AO1 SLP270 T00351034 51030
 MET  CWOD 211400Z AUTO 31010KT M04/M08 RMK AO1 PK WND 31017/1313 SLP247 T10361078  51033
 MET  CWXC 211400Z AUTO 29009G17KT M04/M08 RMK AO1 PK WND 28019/1337 T10441081
 MET  CWPD 211400Z AUTO 05003KT M05/M08 RMK AO1 SLP214 T10541075 51032
 MET  CWPK 211200Z AUTO 31009G17KT M06/M09 RMK AO1 PK WND 32019/1131 SLP265 T10601089  53042
 MET  CWQV 211400Z AUTO 28025G36KT RMK AO1 PK WND 28038/1332
 MET  CYQB 211400Z 28011G20KT 30SM SCT050 03/M06 A3026 RMK SC4 SLP252
 MET  CWNH 211400Z AUTO 31008G15KT M00/M07 RMK AO1 PRESRR PK WND 31023/1329 SLP233  T10021071 53053
 MET  CYRJ 211400Z 30011G21KT 40SM FEW025 M03/M09 A3027 RMK SC1 SLP261
 MET  CYUY 211400Z 33005KT 300V010 15SM -SN OVC018 M05/M09 A3044 RMK SC8 PCPN VRY LGT  SLP329
 MET  CYHU 211400Z AUTO 31011KT 9SM OVC060 06/M02 A3033 RMK SLP273
 MET  CXSH 211400Z AUTO 30005KT 02/M05 RMK AO1 SLP264 T00221051 51034
 MET  CYSC 211400Z AUTO 28010G15KT 9SM OVC060 04/M03 A3026 RMK SLP254
 MET  CWBZ 211400Z AUTO 28007KT 05/M00 RMK AO1 SLP277 T00521004 53028
 MET  CWJB 211400Z AUTO 32009G17KT 03/ RMK AO1 PK WND 33017/1357 T0030
 MET  CWJT 211300Z AUTO 30002KT 01/M04 RMK AO1 SLP273 T00081040 51036
 MET  CWIT 211400Z AUTO 30004KT 06/M01 RMK AO1 SLP273 T00561011 51029
 MET  CWVQ 211400Z AUTO 32009KT 05/M02 RMK AO1 SLP279 T00501016 51031
 MET  CWBA 211400Z AUTO 35006KT M03/M07 RMK AO1 T10261073
 MET  CWTY 211400Z AUTO 29008KT 03/M03 RMK AO1 SLP264 T00301034 51031
 MET  CYRQ 211400Z AUTO 33007KT 300V360 9SM BKN042 OVC050 03/M04 A3031 RMK SLP268
 MET  CYVO 211400Z 30006KT 260V330 4SM -SN OVC012 M06/M07 A3042 RMK SC8 SLP325
 MET  CYOY 211400Z AUTO 28008KT 230V310 9SM BKN041 02/M06 A3023 RMK PCPN 0.5MM PAST HR  SLP248
 MET  CMFM 211400Z AUTO 31009G20KT M04/M06 RMK AO1 SOG 11 1031 PK WND 30020/1350  SLP217 T10381063
 MET  CMGB 211400Z AUTO 30004KT 06/ RMK AO1 SLP264 T0055 51024
 MET  49 Metars Downloaded
 MET  639 MetStns, 437 Metars Available
 MET  Downloading FlightPlan METARs
 MET  Extracting GRIB Forecast: Level 8 ...
 MET  KCAR 211354Z AUTO 34010G16KT 10SM FEW026 BKN036 OVC050 04/M02 A3009 RMK AO2  SLP197 T00391017
 MET  CYDF 211400Z 22011KT 12SM OVC027 04/04 A2975 RMK SC8 SLP078
 MET  CYJT 211400Z 23017KT 15SM BKN020 BKN110 07/05 A2982 RMK SC6AC1 SLP101
 MET  CXRH 211400Z AUTO 23013G21KT 06/05 RMK AO1 32 T00620045
 MET  EIWF 211430Z 23004KT 180V270 9999 BKN016 11/09 Q1023 R21/1/////
 MET  EGOP 211350Z AUTO 23023KT 3800 // BKN004/// BKN012/// 12/11 Q1024
 MET  EGFF 211450Z AUTO 25012KT 9999 BKN011 BKN016 OVC025 12/11 Q1025
 MET  EGVA 211356Z AUTO 23015G22KT 9999 OVC013 11/10 A3026 RMK AO2 RAE1256DZB19E28  SLP252 P0000 T01080099 $
 MET  EGVN 211420Z 24009G19KT 9999 FEW010 BKN014 11/09 Q1024 NOSIG RMK GRN GRN
 MET  EGUB 211350Z AUTO 22012KT 9999 // BKN023/// BKN031/// 13/08 Q1025
 MET  EGVO 211350Z AUTO 23014KT 9999 BKN022/// 11/07 Q1026
 MET  EGKB 211450Z 24013KT 210V280 9999 BKN020 10/07 Q1026
 MET  EGLC 211450Z AUTO 24012KT 9999 OVC027 12/07 Q1025
 MET  EGLL 211450Z AUTO 23012KT 9999 BKN028 OVC033 12/07 Q1025 NOSIG
 MET  EGKK 211450Z 23007KT 9999 BKN021 12/08 Q1026
 MET  EGMC 211450Z 24017G27KT 9999 BKN025 12/07 Q1025
 MET  EGMD 211450Z 25014KT 9999 SCT024 BKN029 13/09 Q1027
 MET  LFAC 211430Z AUTO 24012KT 210V270 9999 SCT019 BKN024 OVC030 12/10 Q1027
 MET  EBFN 211425Z AUTO 22012KT 9000 +RA OVC013/// 11/09 Q1027 GRN
 MET  EBOS 211450Z 22014KT 9999 BKN010 BKN025 10/09 Q1027 TEMPO SCT012
 MET  EBBE 211425Z AUTO 22014KT 9999 OVC030/// 09/05 Q1028 BLU
 MET  EBBR 211450Z 22011KT 9999 FEW016 BKN025 09/06 Q1028 NOSIG
 MET  EBLG 211450Z 20013KT 160V220 9999 BKN030 08/04 Q1029 NOSIG
 MET  EBLB 211433Z AUTO 21008KT 9999 FEW016/// BKN024/// 05/02 Q1029 WHT
 MET  ETNN 211420Z 18006KT 9999 BKN035 SCT200 09/03 Q1029 BLU
 MET  ETSB 211420Z AUTO 23009KT 7000 // ////// 04/00 Q1030 ///
 MET  EDFH 211450Z 22005KT 170V270 CAVOK 04/01 Q1030
 MET  EDDF 211450Z 17003KT CAVOK 05/01 Q1032 NOSIG
 MET  EDDN 211450Z VRB01KT CAVOK 04/01 Q1032 NOSIG
 MET  ETEB 210856Z AUTO 15003KT 9999 CLR M01/M01 A3055 RMK AO2 SLP390 T10111011 $
 MET  LOWL 211450Z 07005KT 9999 FEW024 04/M02 Q1033 NOSIG
 MET  LOAN 211300Z 09005KT 35KM FEW035CU
 MET  LDOS 211430Z 36007KT CAVOK 06/M03 Q1034
 MET  LHPP 211415Z 03011KT CAVOK 06/M07 Q1034
 MET  LBSF 211430Z 27008KT 9999 BKN014 OVC017 03/00 Q1028 NOSIG
 MET  LYNI 211430Z 33014KT 9999 FEW012 BKN033 02/M00 Q1032 NOSIG
 MET  36 Metars Downloaded
 MET  Extracting GRIB Forecast: Low Level 1 ...
 MET  LBPD 211430Z AUTO 12002KT 9999 SCT053 OVC062 08/02 Q1028 NOSIG
 MET  LGKV 211450Z 07005KT 9999 FEW045 BKN060 13/M01 Q1025
 MET  LGAL 211450Z 02013KT 9999 FEW020 SCT030 11/01 Q1026
 MET  LGLM 211420Z 05017G30KT 9999 FEW010 SCT030 13/04 Q1023
 MET  LTBH 211350Z 04014KT 9999 -SHRA FEW020 BKN030 10/08 Q1024
 MET  LGMT 211450Z 01009KT CAVOK 16/10 Q1020
 MET  LTFD 211350Z 04021KT 9999 FEW035 14/05 Q1022
 MET  LTBL 211243Z 14005KT 040V190 CAVOK 17/03 Q1019 BECMG 02012KT RMK RWY17 03010KT  360V060
 MET  LGHI 211450Z 35007KT CAVOK 16/03 Q1019
 MET  LTBJ 211420Z 34011KT CAVOK 16/02 Q1018 NOSIG RMK RWY16 33010KT
 MET  LGSM 211350Z 00000KT CAVOK 17/14 Q1018
 MET  LTFE 211420Z 00000KT CAVOK 18/06 Q1018 NOSIG RMK RWY10 20003KT 160V220
 MET  LGKO 211420Z 35008KT CAVOK 18/08 Q1018
 MET  LGRP 211450Z 20003KT 9999 FEW018 19/11 Q1017 NOSIG
 MET  LTBS 211420Z 26005KT CAVOK 19/10 Q1017 NOSIG RMK RWY19 21004KT SKC
 MET  LLBG 211450Z 27009KT 9999 -RA FEW020TCU SCT025 17/13 Q1017 NOSIG RMK BKN070
 MET  LLHA 211450Z 13008KT 6000 RA FEW016TCU SCT025 16/15 Q1017
 MET  17 Metars Downloaded
 MET  106 MetStns, 53 Metars Available
 MET  METAR Data Ready (437 Metars Loaded)
 MET  Extracting GRIB Forecast: Low Level 2 ...
 MET  Extracting GRIB Forecast: Low Level 3 ...
 MET  Extracting GRIB Forecast: Low Level 4 ...
 MET  Extracting GRIB Forecast: Low Level 5 ...
 MET  Extracting GRIB Forecast: Low Level 6 ...
 MET  Extracting GRIB Forecast: Low Level 7 ...
 MET  Extracting GRIB Forecast: Low Level 8 ...
 MET  Extracting GRIB Forecast: Rel Humidity ...
 MET  Extracting GRIB Forecast: Surface Vis ...
 MET  Decoding GRIB Forecast ...
 MET  Reading GRIB Forecast ...
 MET  GRIB Data Extracted and Decoded
 MET  GRIB Data Ready
 MET  Creating Dynamic Weather Theme ...
 MET  Preparing GRIB Data For Theme ...
 MET  Preparing METAR Data For Theme ...
 MET  Dynamic Weather Theme Created
 GEN  Weather Update : Ready
 MET  Weather At Current Location [39,40,3160] CYTR 31000, 30475, 525 ft
 MET  QNH: 1030 mb, 30,44 in, Temp: 4/-4, Vis: 48000m, Wind: 320/5 Static, Upper 253/86
 MET  Cloud Layer 1: Base 3000ft, Cover 2 octas, Precip 0
 MET  Cloud Layer 2: Base 20000ft, Cover 1 octas, Precip 0
 MET  Cloud Layer 3: Base 29600ft, Cover 4 octas, Precip 0
 MET  Distance Since Last Update 0 km
 MET  DHM Turbulence: 0/8 Freq 0 at Elev 30475 ft
 MET  SIM Turbulence: 0/4 Layer 13 at Base 30005 ft
 GEN  Weather Reload : Submitted
 MET  Preparing Selective Update Data ...
 MET  Dynamic Weather Updated 00:00:00, 9091 km, 4909 nm To Dest
 MET  Upper Vis 240km Average Surface Vis 40km


Back to Top
yvesamuel View Drop Down
Intermediate Group
Intermediate Group


Joined: September-05-2009
Location: France
Points: 71
Post Options Post Options   Thanks (0) Thanks(0)   Quote yvesamuel Quote  Post ReplyReply Direct Link To This Post Posted: November-21-2020 at 9:58am
No DHM ..
Back to Top
Opus Software View Drop Down
Senior Member
Senior Member


Joined: April-12-2012
Location: Grantham, UK
Points: 14895
Post Options Post Options   Thanks (0) Thanks(0)   Quote Opus Software Quote  Post ReplyReply Direct Link To This Post Posted: November-21-2020 at 10:06am
What do you mean no DHM ?

What DHM are you using, General DHM or do you have Live Camera enabled ?

If LC then DHM must be enabled for the displayed live camera view. Have you created and selected a VC view and assigned one as default. Have you enabled DHM in the view edit dialog.

Have you tested DHM via the DHM menu. You still need the mode to be enabled.

Stephen
Back to Top
yvesamuel View Drop Down
Intermediate Group
Intermediate Group


Joined: September-05-2009
Location: France
Points: 71
Post Options Post Options   Thanks (0) Thanks(0)   Quote yvesamuel Quote  Post ReplyReply Direct Link To This Post Posted: November-21-2020 at 10:28am
I do not use live camera. I allways use pnly DHM.
Back to Top
Opus Software View Drop Down
Senior Member
Senior Member


Joined: April-12-2012
Location: Grantham, UK
Points: 14895
Post Options Post Options   Thanks (0) Thanks(0)   Quote Opus Software Quote  Post ReplyReply Direct Link To This Post Posted: November-21-2020 at 10:29am
Also make sure you have Heavy (Jet) Aircraft type selected for your DHM for the 747 otherwise it won’t detect engine power.
Back to Top
yvesamuel View Drop Down
Intermediate Group
Intermediate Group


Joined: September-05-2009
Location: France
Points: 71
Post Options Post Options   Thanks (0) Thanks(0)   Quote yvesamuel Quote  Post ReplyReply Direct Link To This Post Posted: November-21-2020 at 10:31am
I have only pistion AC or jet AC. I selected jet AC
Where to find heavy jets?
Back to Top
Opus Software View Drop Down
Senior Member
Senior Member


Joined: April-12-2012
Location: Grantham, UK
Points: 14895
Post Options Post Options   Thanks (0) Thanks(0)   Quote Opus Software Quote  Post ReplyReply Direct Link To This Post Posted: November-21-2020 at 10:32am
I assume you mean you have enabled General DHM VC Mode and disabled Live Camera. Is that correct. Then check you have Heavy (Jet) Aircraft type selected and test the effects from the General DHM VC Mode edit dialog.

I will double check General DHM tomorrow or Monday. But you should check the above.

Stephen
Back to Top
Opus Software View Drop Down
Senior Member
Senior Member


Joined: April-12-2012
Location: Grantham, UK
Points: 14895
Post Options Post Options   Thanks (0) Thanks(0)   Quote Opus Software Quote  Post ReplyReply Direct Link To This Post Posted: November-21-2020 at 10:35am
ok. Jet is fine.

Now test the effects in the DHM dialog and ensure you have no other camera or addon that will control the eye point.

Live camera DHM is recommended as it can be tailored on a view basis.

Stephen
Back to Top
yvesamuel View Drop Down
Intermediate Group
Intermediate Group


Joined: September-05-2009
Location: France
Points: 71
Post Options Post Options   Thanks (0) Thanks(0)   Quote yvesamuel Quote  Post ReplyReply Direct Link To This Post Posted: November-21-2020 at 10:37am
Originally posted by Opus Software Opus Software wrote:

I assume you mean you have enabled General DHM VC Mode and disabled Live Camera. Is that correct.
Yes it is.

Then check you have Heavy (Jet) Aircraft type selected and test the effects from the General DHM VC Mode edit dialog.

When I test, it works. I'm on a long haul flight (CYYZ to LLBG)
I'll see what happens on arriving and tell you.

I will double check General DHM tomorrow or Monday. But you should check the above.

Stephen


Thank's
Yves
Back to Top
Opus Software View Drop Down
Senior Member
Senior Member


Joined: April-12-2012
Location: Grantham, UK
Points: 14895
Post Options Post Options   Thanks (0) Thanks(0)   Quote Opus Software Quote  Post ReplyReply Direct Link To This Post Posted: November-21-2020 at 10:40am
You won’t get much DHM in the cruise unless there’s clear air turbulence. Turbulence strength and bump frequency changes are reported in the Spy window.

Stephen
Back to Top
Opus Software View Drop Down
Senior Member
Senior Member


Joined: April-12-2012
Location: Grantham, UK
Points: 14895
Post Options Post Options   Thanks (0) Thanks(0)   Quote Opus Software Quote  Post ReplyReply Direct Link To This Post Posted: November-21-2020 at 10:43am
Could sack the throttles up to full power to see if you get some DHM vibration effects.
Back to Top
yvesamuel View Drop Down
Intermediate Group
Intermediate Group


Joined: September-05-2009
Location: France
Points: 71
Post Options Post Options   Thanks (0) Thanks(0)   Quote yvesamuel Quote  Post ReplyReply Direct Link To This Post Posted: November-22-2020 at 4:03am
Hi,

Yesterday, DHM worked when I got down and land.
But this moroning, I'm flying ESSA to RJAA with AS 330.
It was not possible to have DHM in flight, but tests worked!

Have a good day
Yves
Back to Top
 Post Reply Post Reply Page  12>
  Share Topic   

Forum Jump Forum Permissions View Drop Down

Forum Software by Web Wiz Forums® version 12.01
Copyright ©2001-2018 Web Wiz Ltd.

This page was generated in 0.188 seconds.